sensor_id;sensor_type;location;lat;lon;timestamp;P1;durP1;ratioP1;P2;durP2;ratioP2
1509;SDS011;746;48.688;9.428;2023-07-29T00:00:51;2.70;;;2.50;;
1509;SDS011;746;48.688;9.428;2023-07-29T00:03:13;2.97;;;2.77;;
1509;SDS011;746;48.688;9.428;2023-07-29T00:05:34;3.67;;;2.50;;
1509;SDS011;746;48.688;9.428;2023-07-29T00:07:57;3.20;;;2.77;;
1509;SDS011;746;48.688;9.428;2023-07-29T00:10:18;3.87;;;2.93;;
1509;SDS011;746;48.688;9.428;2023-07-29T00:12:40;3.40;;;3.10;;
1509;SDS011;746;48.688;9.428;2023-07-29T00:15:01;3.70;;;2.77;;
1509;SDS011;746;48.688;9.428;2023-07-29T00:17:22;2.80;;;2.60;;
1509;SDS011;746;48.688;9.428;2023-07-29T00:19:44;2.70;;;2.50;;
1509;SDS011;746;48.688;9.428;2023-07-29T00:22:06;2.97;;;2.77;;
1509;SDS011;746;48.688;9.428;2023-07-29T00:24:29;2.80;;;2.60;;
1509;SDS011;746;48.688;9.428;2023-07-29T00:26:51;3.10;;;2.80;;
1509;SDS011;746;48.688;9.428;2023-07-29T00:29:12;2.63;;;2.50;;
1509;SDS011;746;48.688;9.428;2023-07-29T00:31:33;2.93;;;2.73;;
1509;SDS011;746;48.688;9.428;2023-07-29T00:33:55;5.03;;;3.07;;
1509;SDS011;746;48.688;9.428;2023-07-29T00:36:18;3.90;;;3.60;;
1509;SDS011;746;48.688;9.428;2023-07-29T00:38:39;3.97;;;3.53;;
1509;SDS011;746;48.688;9.428;2023-07-29T00:41:03;5.40;;;3.67;;
1509;SDS011;746;48.688;9.428;2023-07-29T00:43:24;4.03;;;3.63;;
1509;SDS011;746;48.688;9.428;2023-07-29T00:45:46;6.23;;;3.70;;
1509;SDS011;746;48.688;9.428;2023-07-29T00:48:07;3.73;;;3.43;;
1509;SDS011;746;48.688;9.428;2023-07-29T00:50:29;3.73;;;3.43;;
1509;SDS011;746;48.688;9.428;2023-07-29T00:52:51;3.13;;;3.00;;
1509;SDS011;746;48.688;9.428;2023-07-29T00:55:12;3.90;;;2.97;;
1509;SDS011;746;48.688;9.428;2023-07-29T00:57:35;3.60;;;3.33;;
1509;SDS011;746;48.688;9.428;2023-07-29T00:59:56;3.83;;;3.53;;
1509;SDS011;746;48.688;9.428;2023-07-29T01:02:18;4.37;;;3.97;;
1509;SDS011;746;48.688;9.428;2023-07-29T01:04:39;3.50;;;3.20;;
1509;SDS011;746;48.688;9.428;2023-07-29T01:07:03;3.60;;;3.30;;
1509;SDS011;746;48.688;9.428;2023-07-29T01:09:30;4.03;;;3.13;;
1509;SDS011;746;48.688;9.428;2023-07-29T01:11:55;3.63;;;2.97;;
1509;SDS011;746;48.688;9.428;2023-07-29T01:14:21;3.73;;;3.17;;
1509;SDS011;746;48.688;9.428;2023-07-29T01:16:46;3.57;;;3.27;;
1509;SDS011;746;48.688;9.428;2023-07-29T01:19:07;3.40;;;3.20;;
1509;SDS011;746;48.688;9.428;2023-07-29T01:21:37;4.07;;;3.67;;
1509;SDS011;746;48.688;9.428;2023-07-29T01:24:01;3.50;;;3.30;;
1509;SDS011;746;48.688;9.428;2023-07-29T01:26:22;3.60;;;3.40;;
1509;SDS011;746;48.688;9.428;2023-07-29T01:28:43;3.40;;;3.20;;
1509;SDS011;746;48.688;9.428;2023-07-29T01:31:06;3.57;;;3.27;;
1509;SDS011;746;48.688;9.428;2023-07-29T01:33:32;4.20;;;3.30;;
1509;SDS011;746;48.688;9.428;2023-07-29T01:35:57;3.10;;;2.90;;
1509;SDS011;746;48.688;9.428;2023-07-29T01:38:19;4.23;;;3.10;;
1509;SDS011;746;48.688;9.428;2023-07-29T01:40:42;3.20;;;3.00;;
1509;SDS011;746;48.688;9.428;2023-07-29T01:43:04;3.30;;;3.07;;
1509;SDS011;746;48.688;9.428;2023-07-29T01:45:27;2.90;;;2.70;;
1509;SDS011;746;48.688;9.428;2023-07-29T01:47:52;3.13;;;2.93;;
1509;SDS011;746;48.688;9.428;2023-07-29T01:50:13;3.30;;;3.07;;
1509;SDS011;746;48.688;9.428;2023-07-29T01:52:35;4.70;;;3.43;;
1509;SDS011;746;48.688;9.428;2023-07-29T01:54:56;2.73;;;2.53;;
1509;SDS011;746;48.688;9.428;2023-07-29T01:57:19;2.80;;;2.60;;
1509;SDS011;746;48.688;9.428;2023-07-29T01:59:40;3.60;;;3.00;;
1509;SDS011;746;48.688;9.428;2023-07-29T02:02:01;3.40;;;2.83;;
1509;SDS011;746;48.688;9.428;2023-07-29T02:04:23;3.20;;;3.00;;
1509;SDS011;746;48.688;9.428;2023-07-29T02:06:44;2.90;;;2.70;;
1509;SDS011;746;48.688;9.428;2023-07-29T02:09:06;4.07;;;2.90;;
1509;SDS011;746;48.688;9.428;2023-07-29T02:11:27;3.07;;;2.90;;
1509;SDS011;746;48.688;9.428;2023-07-29T02:13:50;3.40;;;2.90;;
1509;SDS011;746;48.688;9.428;2023-07-29T02:16:11;3.47;;;2.77;;
1509;SDS011;746;48.688;9.428;2023-07-29T02:18:32;4.23;;;2.70;;
1509;SDS011;746;48.688;9.428;2023-07-29T02:20:54;3.57;;;3.10;;
1509;SDS011;746;48.688;9.428;2023-07-29T02:23:16;4.07;;;3.00;;
1509;SDS011;746;48.688;9.428;2023-07-29T02:25:37;3.17;;;2.97;;
1509;SDS011;746;48.688;9.428;2023-07-29T02:27:58;3.73;;;3.20;;
1509;SDS011;746;48.688;9.428;2023-07-29T02:30:21;3.40;;;3.20;;
1509;SDS011;746;48.688;9.428;2023-07-29T02:32:43;3.37;;;3.07;;
1509;SDS011;746;48.688;9.428;2023-07-29T02:35:04;3.80;;;3.37;;
1509;SDS011;746;48.688;9.428;2023-07-29T02:37:26;3.23;;;3.03;;
1509;SDS011;746;48.688;9.428;2023-07-29T02:39:47;4.23;;;3.27;;
1509;SDS011;746;48.688;9.428;2023-07-29T02:42:09;3.60;;;3.40;;
1509;SDS011;746;48.688;9.428;2023-07-29T02:44:30;3.43;;;3.23;;
1509;SDS011;746;48.688;9.428;2023-07-29T02:46:53;4.00;;;3.57;;
1509;SDS011;746;48.688;9.428;2023-07-29T02:49:15;3.70;;;3.40;;
1509;SDS011;746;48.688;9.428;2023-07-29T02:51:37;3.80;;;3.40;;
1509;SDS011;746;48.688;9.428;2023-07-29T02:53:58;3.67;;;3.37;;
1509;SDS011;746;48.688;9.428;2023-07-29T02:56:19;3.73;;;3.40;;
1509;SDS011;746;48.688;9.428;2023-07-29T02:58:41;3.80;;;3.27;;
1509;SDS011;746;48.688;9.428;2023-07-29T03:01:03;5.77;;;3.70;;
1509;SDS011;746;48.688;9.428;2023-07-29T03:03:26;4.23;;;3.93;;
1509;SDS011;746;48.688;9.428;2023-07-29T03:05:48;4.30;;;3.93;;
1509;SDS011;746;48.688;9.428;2023-07-29T03:08:09;4.17;;;3.70;;
1509;SDS011;746;48.688;9.428;2023-07-29T03:10:31;3.53;;;3.30;;
1509;SDS011;746;48.688;9.428;2023-07-29T03:12:53;3.83;;;3.63;;
1509;SDS011;746;48.688;9.428;2023-07-29T03:15:15;3.87;;;3.47;;
1509;SDS011;746;48.688;9.428;2023-07-29T03:17:36;3.80;;;3.50;;
1509;SDS011;746;48.688;9.428;2023-07-29T03:19:58;3.77;;;3.47;;
1509;SDS011;746;48.688;9.428;2023-07-29T03:22:20;3.97;;;3.53;;
1509;SDS011;746;48.688;9.428;2023-07-29T03:24:41;3.70;;;3.40;;
1509;SDS011;746;48.688;9.428;2023-07-29T03:27:03;4.10;;;3.67;;
1509;SDS011;746;48.688;9.428;2023-07-29T03:29:25;3.83;;;3.53;;
1509;SDS011;746;48.688;9.428;2023-07-29T03:31:46;3.47;;;3.27;;
1509;SDS011;746;48.688;9.428;2023-07-29T03:34:08;3.97;;;3.57;;
1509;SDS011;746;48.688;9.428;2023-07-29T03:36:32;4.23;;;3.30;;
1509;SDS011;746;48.688;9.428;2023-07-29T03:38:54;4.33;;;4.00;;
1509;SDS011;746;48.688;9.428;2023-07-29T03:41:15;4.20;;;3.80;;
1509;SDS011;746;48.688;9.428;2023-07-29T03:43:37;4.00;;;3.70;;
1509;SDS011;746;48.688;9.428;2023-07-29T03:45:58;3.90;;;3.60;;
1509;SDS011;746;48.688;9.428;2023-07-29T03:48:19;3.70;;;3.50;;
1509;SDS011;746;48.688;9.428;2023-07-29T03:50:40;4.20;;;3.80;;
1509;SDS011;746;48.688;9.428;2023-07-29T03:53:03;4.17;;;3.57;;
1509;SDS011;746;48.688;9.428;2023-07-29T03:55:24;4.67;;;4.00;;
1509;SDS011;746;48.688;9.428;2023-07-29T03:57:45;3.97;;;3.63;;
1509;SDS011;746;48.688;9.428;2023-07-29T04:00:07;5.73;;;3.80;;
1509;SDS011;746;48.688;9.428;2023-07-29T04:02:30;3.80;;;3.50;;
1509;SDS011;746;48.688;9.428;2023-07-29T04:04:52;4.50;;;4.00;;
1509;SDS011;746;48.688;9.428;2023-07-29T04:07:13;3.93;;;3.73;;
1509;SDS011;746;48.688;9.428;2023-07-29T04:09:36;3.93;;;3.53;;
1509;SDS011;746;48.688;9.428;2023-07-29T04:11:57;5.70;;;4.00;;
1509;SDS011;746;48.688;9.428;2023-07-29T04:14:19;5.47;;;3.53;;
1509;SDS011;746;48.688;9.428;2023-07-29T04:16:40;3.57;;;3.37;;
1509;SDS011;746;48.688;9.428;2023-07-29T04:19:02;4.33;;;3.93;;
1509;SDS011;746;48.688;9.428;2023-07-29T04:21:23;4.00;;;3.70;;
1509;SDS011;746;48.688;9.428;2023-07-29T04:23:45;5.40;;;3.90;;
1509;SDS011;746;48.688;9.428;2023-07-29T04:26:07;3.60;;;3.30;;
1509;SDS011;746;48.688;9.428;2023-07-29T04:28:29;4.00;;;3.60;;
1509;SDS011;746;48.688;9.428;2023-07-29T04:30:50;3.80;;;3.50;;
1509;SDS011;746;48.688;9.428;2023-07-29T04:33:11;3.73;;;3.43;;
1509;SDS011;746;48.688;9.428;2023-07-29T04:35:33;3.33;;;3.13;;
1509;SDS011;746;48.688;9.428;2023-07-29T04:37:55;4.17;;;3.90;;
1509;SDS011;746;48.688;9.428;2023-07-29T04:40:16;3.80;;;3.60;;
1509;SDS011;746;48.688;9.428;2023-07-29T04:42:39;4.00;;;3.70;;
1509;SDS011;746;48.688;9.428;2023-07-29T04:45:00;4.10;;;3.33;;
1509;SDS011;746;48.688;9.428;2023-07-29T04:47:22;3.83;;;3.50;;
1509;SDS011;746;48.688;9.428;2023-07-29T04:49:46;4.57;;;3.67;;
1509;SDS011;746;48.688;9.428;2023-07-29T04:52:07;4.20;;;3.70;;
1509;SDS011;746;48.688;9.428;2023-07-29T04:54:29;4.20;;;3.73;;
1509;SDS011;746;48.688;9.428;2023-07-29T04:56:50;6.73;;;3.90;;
1509;SDS011;746;48.688;9.428;2023-07-29T04:59:12;7.57;;;4.17;;
1509;SDS011;746;48.688;9.428;2023-07-29T05:01:34;7.27;;;4.27;;
1509;SDS011;746;48.688;9.428;2023-07-29T05:03:56;6.80;;;4.83;;
1509;SDS011;746;48.688;9.428;2023-07-29T05:06:17;5.40;;;4.60;;
1509;SDS011;746;48.688;9.428;2023-07-29T05:08:40;6.63;;;4.50;;
1509;SDS011;746;48.688;9.428;2023-07-29T05:11:01;4.90;;;4.40;;
1509;SDS011;746;48.688;9.428;2023-07-29T05:13:23;11.63;;;5.00;;
1509;SDS011;746;48.688;9.428;2023-07-29T05:15:46;5.00;;;4.50;;
1509;SDS011;746;48.688;9.428;2023-07-29T05:18:08;4.30;;;3.90;;
1509;SDS011;746;48.688;9.428;2023-07-29T05:20:29;4.23;;;3.87;;
1509;SDS011;746;48.688;9.428;2023-07-29T05:22:50;4.60;;;3.77;;
1509;SDS011;746;48.688;9.428;2023-07-29T05:25:12;4.17;;;3.83;;
1509;SDS011;746;48.688;9.428;2023-07-29T05:27:33;4.70;;;4.30;;
1509;SDS011;746;48.688;9.428;2023-07-29T05:29:54;4.30;;;3.90;;
1509;SDS011;746;48.688;9.428;2023-07-29T05:32:17;4.40;;;4.00;;
1509;SDS011;746;48.688;9.428;2023-07-29T05:34:38;4.73;;;4.33;;
1509;SDS011;746;48.688;9.428;2023-07-29T05:37:00;4.87;;;4.20;;
1509;SDS011;746;48.688;9.428;2023-07-29T05:39:21;4.90;;;4.47;;
1509;SDS011;746;48.688;9.428;2023-07-29T05:41:44;5.90;;;4.70;;
1509;SDS011;746;48.688;9.428;2023-07-29T05:44:06;5.90;;;4.90;;
1509;SDS011;746;48.688;9.428;2023-07-29T05:46:29;5.93;;;4.93;;
1509;SDS011;746;48.688;9.428;2023-07-29T05:48:52;5.47;;;4.93;;
1509;SDS011;746;48.688;9.428;2023-07-29T05:51:13;5.17;;;4.63;;
1509;SDS011;746;48.688;9.428;2023-07-29T05:53:35;5.60;;;5.10;;
1509;SDS011;746;48.688;9.428;2023-07-29T05:55:56;4.90;;;4.40;;
1509;SDS011;746;48.688;9.428;2023-07-29T05:58:17;8.00;;;4.63;;
1509;SDS011;746;48.688;9.428;2023-07-29T06:00:39;4.93;;;4.50;;
1509;SDS011;746;48.688;9.428;2023-07-29T06:03:00;5.77;;;4.20;;
1509;SDS011;746;48.688;9.428;2023-07-29T06:05:23;6.23;;;4.43;;
1509;SDS011;746;48.688;9.428;2023-07-29T06:07:44;4.93;;;4.50;;
1509;SDS011;746;48.688;9.428;2023-07-29T06:10:07;4.57;;;4.23;;
1509;SDS011;746;48.688;9.428;2023-07-29T06:12:31;5.50;;;4.37;;
1509;SDS011;746;48.688;9.428;2023-07-29T06:14:53;5.50;;;4.43;;
1509;SDS011;746;48.688;9.428;2023-07-29T06:17:14;5.37;;;4.20;;
1509;SDS011;746;48.688;9.428;2023-07-29T06:19:35;4.87;;;4.37;;
1509;SDS011;746;48.688;9.428;2023-07-29T06:21:58;4.40;;;4.10;;
1509;SDS011;746;48.688;9.428;2023-07-29T06:24:21;4.03;;;3.73;;
1509;SDS011;746;48.688;9.428;2023-07-29T06:26:42;5.30;;;3.73;;
1509;SDS011;746;48.688;9.428;2023-07-29T06:29:04;3.77;;;3.47;;
1509;SDS011;746;48.688;9.428;2023-07-29T06:31:25;3.23;;;3.13;;
1509;SDS011;746;48.688;9.428;2023-07-29T06:33:47;2.93;;;2.73;;
1509;SDS011;746;48.688;9.428;2023-07-29T06:36:09;2.93;;;2.73;;
1509;SDS011;746;48.688;9.428;2023-07-29T06:38:32;2.67;;;2.57;;
1509;SDS011;746;48.688;9.428;2023-07-29T06:40:53;2.77;;;2.57;;
1509;SDS011;746;48.688;9.428;2023-07-29T06:43:15;3.23;;;2.60;;
1509;SDS011;746;48.688;9.428;2023-07-29T06:45:36;2.77;;;2.57;;
1509;SDS011;746;48.688;9.428;2023-07-29T06:47:58;3.07;;;2.77;;
1509;SDS011;746;48.688;9.428;2023-07-29T06:50:22;4.00;;;2.30;;
1509;SDS011;746;48.688;9.428;2023-07-29T06:52:43;2.60;;;2.40;;
1509;SDS011;746;48.688;9.428;2023-07-29T06:55:07;2.57;;;2.47;;
1509;SDS011;746;48.688;9.428;2023-07-29T06:57:28;4.20;;;2.60;;
1509;SDS011;746;48.688;9.428;2023-07-29T06:59:49;3.10;;;2.50;;
1509;SDS011;746;48.688;9.428;2023-07-29T07:02:11;2.53;;;2.40;;
1509;SDS011;746;48.688;9.428;2023-07-29T07:04:33;4.90;;;2.80;;
1509;SDS011;746;48.688;9.428;2023-07-29T07:06:54;4.10;;;2.93;;
1509;SDS011;746;48.688;9.428;2023-07-29T07:09:16;3.40;;;3.10;;
1509;SDS011;746;48.688;9.428;2023-07-29T07:11:38;6.23;;;3.70;;
1509;SDS011;746;48.688;9.428;2023-07-29T07:14:00;10.90;;;4.20;;
1509;SDS011;746;48.688;9.428;2023-07-29T07:16:21;21.77;;;4.33;;
1509;SDS011;746;48.688;9.428;2023-07-29T07:18:42;2.70;;;2.37;;
1509;SDS011;746;48.688;9.428;2023-07-29T07:21:03;4.77;;;2.83;;
1509;SDS011;746;48.688;9.428;2023-07-29T07:23:25;4.40;;;3.57;;
1509;SDS011;746;48.688;9.428;2023-07-29T07:25:46;6.50;;;3.00;;
1509;SDS011;746;48.688;9.428;2023-07-29T07:28:09;6.80;;;3.10;;
1509;SDS011;746;48.688;9.428;2023-07-29T07:30:30;5.60;;;3.27;;
1509;SDS011;746;48.688;9.428;2023-07-29T07:32:52;2.50;;;2.30;;
1509;SDS011;746;48.688;9.428;2023-07-29T07:35:13;2.80;;;2.40;;
1509;SDS011;746;48.688;9.428;2023-07-29T07:37:35;3.30;;;2.13;;
1509;SDS011;746;48.688;9.428;2023-07-29T07:39:56;2.37;;;1.80;;
1509;SDS011;746;48.688;9.428;2023-07-29T07:42:18;1.97;;;1.80;;
1509;SDS011;746;48.688;9.428;2023-07-29T07:44:40;2.77;;;1.80;;
1509;SDS011;746;48.688;9.428;2023-07-29T07:47:02;2.07;;;1.97;;
1509;SDS011;746;48.688;9.428;2023-07-29T07:49:24;2.20;;;1.90;;
1509;SDS011;746;48.688;9.428;2023-07-29T07:51:45;2.47;;;1.83;;
1509;SDS011;746;48.688;9.428;2023-07-29T07:54:07;2.07;;;1.80;;
1509;SDS011;746;48.688;9.428;2023-07-29T07:56:28;2.33;;;2.13;;
1509;SDS011;746;48.688;9.428;2023-07-29T07:58:49;2.60;;;1.97;;
1509;SDS011;746;48.688;9.428;2023-07-29T08:01:12;2.00;;;1.90;;
1509;SDS011;746;48.688;9.428;2023-07-29T08:03:33;2.23;;;2.10;;
1509;SDS011;746;48.688;9.428;2023-07-29T08:05:55;2.50;;;2.30;;
1509;SDS011;746;48.688;9.428;2023-07-29T08:08:16;2.50;;;2.40;;
1509;SDS011;746;48.688;9.428;2023-07-29T08:10:37;2.80;;;2.60;;
1509;SDS011;746;48.688;9.428;2023-07-29T08:12:59;3.07;;;2.60;;
1509;SDS011;746;48.688;9.428;2023-07-29T08:15:20;4.47;;;2.53;;
1509;SDS011;746;48.688;9.428;2023-07-29T08:17:43;2.80;;;2.60;;
1509;SDS011;746;48.688;9.428;2023-07-29T08:20:05;5.07;;;2.80;;
1509;SDS011;746;48.688;9.428;2023-07-29T08:22:26;3.30;;;2.80;;
1509;SDS011;746;48.688;9.428;2023-07-29T08:24:48;3.10;;;2.90;;
1509;SDS011;746;48.688;9.428;2023-07-29T08:27:09;3.60;;;3.40;;
1509;SDS011;746;48.688;9.428;2023-07-29T08:29:31;3.23;;;3.00;;
1509;SDS011;746;48.688;9.428;2023-07-29T08:31:52;3.70;;;3.20;;
1509;SDS011;746;48.688;9.428;2023-07-29T08:34:16;3.50;;;3.20;;
1509;SDS011;746;48.688;9.428;2023-07-29T08:36:37;2.83;;;2.60;;
1509;SDS011;746;48.688;9.428;2023-07-29T08:38:59;3.97;;;3.30;;
1509;SDS011;746;48.688;9.428;2023-07-29T08:41:21;3.03;;;2.73;;
1509;SDS011;746;48.688;9.428;2023-07-29T08:43:48;2.93;;;2.73;;
1509;SDS011;746;48.688;9.428;2023-07-29T08:46:10;4.90;;;2.90;;
1509;SDS011;746;48.688;9.428;2023-07-29T08:48:32;2.97;;;2.77;;
1509;SDS011;746;48.688;9.428;2023-07-29T08:50:57;3.50;;;3.07;;
1509;SDS011;746;48.688;9.428;2023-07-29T08:53:19;2.90;;;2.63;;
1509;SDS011;746;48.688;9.428;2023-07-29T08:55:41;2.90;;;2.67;;
1509;SDS011;746;48.688;9.428;2023-07-29T08:58:03;3.10;;;2.90;;
1509;SDS011;746;48.688;9.428;2023-07-29T09:00:25;3.30;;;3.03;;
1509;SDS011;746;48.688;9.428;2023-07-29T09:02:46;3.17;;;2.87;;
1509;SDS011;746;48.688;9.428;2023-07-29T09:05:08;3.80;;;3.17;;
1509;SDS011;746;48.688;9.428;2023-07-29T09:07:30;4.17;;;3.23;;
1509;SDS011;746;48.688;9.428;2023-07-29T09:09:51;2.60;;;2.47;;
1509;SDS011;746;48.688;9.428;2023-07-29T09:12:13;2.73;;;2.53;;
1509;SDS011;746;48.688;9.428;2023-07-29T09:14:34;3.30;;;2.70;;
1509;SDS011;746;48.688;9.428;2023-07-29T09:16:56;3.20;;;2.90;;
1509;SDS011;746;48.688;9.428;2023-07-29T09:19:18;2.87;;;2.67;;
1509;SDS011;746;48.688;9.428;2023-07-29T09:21:39;2.80;;;2.60;;
1509;SDS011;746;48.688;9.428;2023-07-29T09:24:03;2.50;;;2.30;;
1509;SDS011;746;48.688;9.428;2023-07-29T09:26:25;2.60;;;2.50;;
1509;SDS011;746;48.688;9.428;2023-07-29T09:28:51;2.37;;;2.27;;
1509;SDS011;746;48.688;9.428;2023-07-29T09:31:18;3.20;;;2.53;;
1509;SDS011;746;48.688;9.428;2023-07-29T09:33:39;2.50;;;2.27;;
1509;SDS011;746;48.688;9.428;2023-07-29T09:36:01;2.80;;;2.30;;
1509;SDS011;746;48.688;9.428;2023-07-29T09:38:25;2.50;;;2.33;;
1509;SDS011;746;48.688;9.428;2023-07-29T09:40:48;2.33;;;2.23;;
1509;SDS011;746;48.688;9.428;2023-07-29T09:43:10;2.40;;;2.20;;
1509;SDS011;746;48.688;9.428;2023-07-29T09:45:32;6.13;;;2.03;;
1509;SDS011;746;48.688;9.428;2023-07-29T09:47:54;2.87;;;2.67;;
1509;SDS011;746;48.688;9.428;2023-07-29T09:50:17;2.30;;;2.10;;
1509;SDS011;746;48.688;9.428;2023-07-29T09:52:39;2.33;;;2.23;;
1509;SDS011;746;48.688;9.428;2023-07-29T09:55:00;2.77;;;2.20;;
1509;SDS011;746;48.688;9.428;2023-07-29T09:57:23;2.50;;;2.30;;
1509;SDS011;746;48.688;9.428;2023-07-29T09:59:52;2.57;;;2.17;;
1509;SDS011;746;48.688;9.428;2023-07-29T10:02:15;2.63;;;2.50;;
1509;SDS011;746;48.688;9.428;2023-07-29T10:04:37;2.53;;;2.33;;
1509;SDS011;746;48.688;9.428;2023-07-29T10:06:58;2.40;;;2.30;;
1509;SDS011;746;48.688;9.428;2023-07-29T10:09:20;2.57;;;2.40;;
1509;SDS011;746;48.688;9.428;2023-07-29T10:11:42;2.30;;;2.20;;
1509;SDS011;746;48.688;9.428;2023-07-29T10:14:05;3.00;;;2.70;;
1509;SDS011;746;48.688;9.428;2023-07-29T10:16:28;2.50;;;2.40;;
1509;SDS011;746;48.688;9.428;2023-07-29T10:18:50;2.33;;;2.23;;
1509;SDS011;746;48.688;9.428;2023-07-29T10:21:12;2.50;;;2.40;;
1509;SDS011;746;48.688;9.428;2023-07-29T10:23:37;3.00;;;2.43;;
1509;SDS011;746;48.688;9.428;2023-07-29T10:25:59;4.87;;;2.50;;
1509;SDS011;746;48.688;9.428;2023-07-29T10:28:23;3.53;;;2.70;;
1509;SDS011;746;48.688;9.428;2023-07-29T10:30:47;3.23;;;2.50;;
1509;SDS011;746;48.688;9.428;2023-07-29T10:33:09;2.60;;;2.40;;
1509;SDS011;746;48.688;9.428;2023-07-29T10:35:31;2.50;;;2.40;;
1509;SDS011;746;48.688;9.428;2023-07-29T10:37:53;2.77;;;2.57;;
1509;SDS011;746;48.688;9.428;2023-07-29T10:40:15;2.63;;;2.43;;
1509;SDS011;746;48.688;9.428;2023-07-29T10:42:37;2.73;;;2.57;;
1509;SDS011;746;48.688;9.428;2023-07-29T10:44:58;2.70;;;2.50;;
1509;SDS011;746;48.688;9.428;2023-07-29T10:47:22;4.20;;;3.90;;
1509;SDS011;746;48.688;9.428;2023-07-29T10:49:44;3.03;;;2.87;;
1509;SDS011;746;48.688;9.428;2023-07-29T10:52:05;3.00;;;2.80;;
1509;SDS011;746;48.688;9.428;2023-07-29T10:54:27;2.37;;;2.27;;
1509;SDS011;746;48.688;9.428;2023-07-29T10:56:49;2.63;;;2.50;;
1509;SDS011;746;48.688;9.428;2023-07-29T10:59:31;3.00;;;2.70;;
1509;SDS011;746;48.688;9.428;2023-07-29T11:01:53;2.83;;;2.63;;
1509;SDS011;746;48.688;9.428;2023-07-29T11:04:25;2.60;;;2.40;;
1509;SDS011;746;48.688;9.428;2023-07-29T11:09:40;2.40;;;2.20;;
1509;SDS011;746;48.688;9.428;2023-07-29T11:12:04;2.40;;;2.30;;
1509;SDS011;746;48.688;9.428;2023-07-29T11:14:26;2.53;;;2.33;;
1509;SDS011;746;48.688;9.428;2023-07-29T11:16:47;2.50;;;2.40;;
1509;SDS011;746;48.688;9.428;2023-07-29T11:19:09;2.80;;;2.33;;
1509;SDS011;746;48.688;9.428;2023-07-29T11:21:35;5.00;;;2.70;;
1509;SDS011;746;48.688;9.428;2023-07-29T11:23:57;2.50;;;2.40;;
1509;SDS011;746;48.688;9.428;2023-07-29T11:26:19;2.50;;;2.40;;
1509;SDS011;746;48.688;9.428;2023-07-29T11:28:40;3.23;;;2.40;;
1509;SDS011;746;48.688;9.428;2023-07-29T11:31:01;2.63;;;2.43;;
1509;SDS011;746;48.688;9.428;2023-07-29T11:33:23;3.33;;;2.50;;
1509;SDS011;746;48.688;9.428;2023-07-29T11:35:44;2.40;;;2.30;;
1509;SDS011;746;48.688;9.428;2023-07-29T11:38:07;2.50;;;2.30;;
1509;SDS011;746;48.688;9.428;2023-07-29T11:40:28;2.53;;;2.43;;
1509;SDS011;746;48.688;9.428;2023-07-29T11:42:51;3.00;;;2.67;;
1509;SDS011;746;48.688;9.428;2023-07-29T11:45:13;2.63;;;2.43;;
1509;SDS011;746;48.688;9.428;2023-07-29T11:47:37;2.93;;;2.73;;
1509;SDS011;746;48.688;9.428;2023-07-29T11:49:59;2.30;;;2.20;;
1509;SDS011;746;48.688;9.428;2023-07-29T11:52:20;2.47;;;2.27;;
1509;SDS011;746;48.688;9.428;2023-07-29T11:54:43;3.57;;;2.40;;
1509;SDS011;746;48.688;9.428;2023-07-29T11:57:05;2.20;;;2.10;;
1509;SDS011;746;48.688;9.428;2023-07-29T11:59:27;2.60;;;2.40;;
1509;SDS011;746;48.688;9.428;2023-07-29T12:01:48;2.27;;;2.17;;
1509;SDS011;746;48.688;9.428;2023-07-29T12:04:09;2.87;;;2.67;;
1509;SDS011;746;48.688;9.428;2023-07-29T12:06:31;2.80;;;2.50;;
1509;SDS011;746;48.688;9.428;2023-07-29T12:08:52;2.40;;;2.30;;
1509;SDS011;746;48.688;9.428;2023-07-29T12:11:15;2.33;;;2.23;;
1509;SDS011;746;48.688;9.428;2023-07-29T12:13:36;2.40;;;2.30;;
1509;SDS011;746;48.688;9.428;2023-07-29T12:16:00;2.33;;;2.23;;
1509;SDS011;746;48.688;9.428;2023-07-29T12:18:29;2.90;;;2.73;;
1509;SDS011;746;48.688;9.428;2023-07-29T12:20:50;2.60;;;2.50;;
1509;SDS011;746;48.688;9.428;2023-07-29T12:23:12;2.73;;;2.53;;
1509;SDS011;746;48.688;9.428;2023-07-29T12:25:33;2.63;;;2.53;;
1509;SDS011;746;48.688;9.428;2023-07-29T12:27:57;2.47;;;2.20;;
1509;SDS011;746;48.688;9.428;2023-07-29T12:30:22;2.57;;;2.47;;
1509;SDS011;746;48.688;9.428;2023-07-29T12:32:45;2.80;;;2.70;;
1509;SDS011;746;48.688;9.428;2023-07-29T12:35:09;2.60;;;2.50;;
1509;SDS011;746;48.688;9.428;2023-07-29T12:37:31;2.77;;;2.57;;
1509;SDS011;746;48.688;9.428;2023-07-29T12:39:52;3.10;;;2.90;;
1509;SDS011;746;48.688;9.428;2023-07-29T12:42:13;2.27;;;2.17;;
1509;SDS011;746;48.688;9.428;2023-07-29T12:44:36;2.83;;;2.63;;
1509;SDS011;746;48.688;9.428;2023-07-29T12:46:59;2.50;;;2.40;;
1509;SDS011;746;48.688;9.428;2023-07-29T12:49:20;3.00;;;2.40;;
1509;SDS011;746;48.688;9.428;2023-07-29T12:51:42;2.60;;;2.40;;
1509;SDS011;746;48.688;9.428;2023-07-29T12:54:03;2.40;;;2.30;;
1509;SDS011;746;48.688;9.428;2023-07-29T12:56:25;2.30;;;2.20;;
1509;SDS011;746;48.688;9.428;2023-07-29T12:58:46;2.20;;;2.10;;
1509;SDS011;746;48.688;9.428;2023-07-29T13:01:09;2.60;;;2.50;;
1509;SDS011;746;48.688;9.428;2023-07-29T13:03:33;2.57;;;2.47;;
1509;SDS011;746;48.688;9.428;2023-07-29T13:05:54;2.20;;;2.10;;
1509;SDS011;746;48.688;9.428;2023-07-29T13:08:16;2.40;;;2.30;;
1509;SDS011;746;48.688;9.428;2023-07-29T13:10:37;2.40;;;2.30;;
1509;SDS011;746;48.688;9.428;2023-07-29T13:12:58;2.20;;;2.10;;
1509;SDS011;746;48.688;9.428;2023-07-29T13:15:20;2.33;;;2.20;;
1509;SDS011;746;48.688;9.428;2023-07-29T13:17:42;2.40;;;2.30;;
1509;SDS011;746;48.688;9.428;2023-07-29T13:20:06;2.67;;;2.30;;
1509;SDS011;746;48.688;9.428;2023-07-29T13:22:27;2.60;;;2.40;;
1509;SDS011;746;48.688;9.428;2023-07-29T13:24:48;2.73;;;2.50;;
1509;SDS011;746;48.688;9.428;2023-07-29T13:27:10;2.80;;;2.60;;
1509;SDS011;746;48.688;9.428;2023-07-29T13:29:31;2.50;;;2.40;;
1509;SDS011;746;48.688;9.428;2023-07-29T13:31:53;2.30;;;2.20;;
1509;SDS011;746;48.688;9.428;2023-07-29T13:34:15;2.50;;;2.40;;
1509;SDS011;746;48.688;9.428;2023-07-29T13:36:36;2.80;;;2.70;;
1509;SDS011;746;48.688;9.428;2023-07-29T13:38:58;2.50;;;2.30;;
1509;SDS011;746;48.688;9.428;2023-07-29T13:41:19;2.50;;;2.40;;
1509;SDS011;746;48.688;9.428;2023-07-29T13:43:41;2.30;;;2.20;;
1509;SDS011;746;48.688;9.428;2023-07-29T13:46:02;4.20;;;2.47;;
1509;SDS011;746;48.688;9.428;2023-07-29T13:48:24;2.40;;;2.27;;
1509;SDS011;746;48.688;9.428;2023-07-29T13:50:46;2.20;;;2.10;;
1509;SDS011;746;48.688;9.428;2023-07-29T13:53:08;2.20;;;2.10;;
1509;SDS011;746;48.688;9.428;2023-07-29T13:55:29;2.37;;;2.17;;
1509;SDS011;746;48.688;9.428;2023-07-29T13:57:51;2.50;;;2.40;;
1509;SDS011;746;48.688;9.428;2023-07-29T14:00:13;2.20;;;2.10;;
1509;SDS011;746;48.688;9.428;2023-07-29T14:02:34;2.50;;;2.40;;
1509;SDS011;746;48.688;9.428;2023-07-29T14:04:56;2.63;;;2.40;;
1509;SDS011;746;48.688;9.428;2023-07-29T14:07:19;2.77;;;2.57;;
1509;SDS011;746;48.688;9.428;2023-07-29T14:09:40;2.43;;;2.33;;
1509;SDS011;746;48.688;9.428;2023-07-29T14:12:03;2.83;;;2.50;;
1509;SDS011;746;48.688;9.428;2023-07-29T14:14:24;2.70;;;2.50;;
1509;SDS011;746;48.688;9.428;2023-07-29T14:16:45;2.80;;;2.70;;
1509;SDS011;746;48.688;9.428;2023-07-29T14:19:07;2.60;;;2.50;;
1509;SDS011;746;48.688;9.428;2023-07-29T14:21:28;2.60;;;2.40;;
1509;SDS011;746;48.688;9.428;2023-07-29T14:23:51;2.30;;;2.10;;
1509;SDS011;746;48.688;9.428;2023-07-29T14:26:12;2.40;;;2.30;;
1509;SDS011;746;48.688;9.428;2023-07-29T14:28:34;2.40;;;2.30;;
1509;SDS011;746;48.688;9.428;2023-07-29T14:30:55;4.00;;;2.53;;
1509;SDS011;746;48.688;9.428;2023-07-29T14:33:17;2.40;;;2.20;;
1509;SDS011;746;48.688;9.428;2023-07-29T14:35:39;2.60;;;2.40;;
1509;SDS011;746;48.688;9.428;2023-07-29T14:38:00;5.23;;;2.57;;
1509;SDS011;746;48.688;9.428;2023-07-29T14:40:23;2.57;;;2.47;;
1509;SDS011;746;48.688;9.428;2023-07-29T14:42:44;2.30;;;2.20;;
1509;SDS011;746;48.688;9.428;2023-07-29T14:45:06;2.43;;;2.30;;
1509;SDS011;746;48.688;9.428;2023-07-29T14:47:28;3.17;;;2.97;;
1509;SDS011;746;48.688;9.428;2023-07-29T14:49:54;2.40;;;2.30;;
1509;SDS011;746;48.688;9.428;2023-07-29T14:52:16;2.30;;;2.20;;
1509;SDS011;746;48.688;9.428;2023-07-29T14:54:37;2.73;;;2.10;;
1509;SDS011;746;48.688;9.428;2023-07-29T14:57:00;3.50;;;2.67;;
1509;SDS011;746;48.688;9.428;2023-07-29T14:59:21;2.53;;;2.43;;